This is the latest recevied weather packets stored in our database for station/object NE8U. If no packets are shown the sender has not sent any weather packets the latest 1 day(s).
| Time | Temp. | Humidity | Pressure | Rain* | Wind** | Luminosity | Snow |
|---|---|---|---|---|---|---|---|
| 1778029930 | 22.22° C | 32% | 1012.1 hPa | 0 mm | 2.24 m/s, 283° | 39 W/m² | - |
| 1778029629 | 22.22° C | 32% | 1012.1 hPa | 0 mm | 3.58 m/s, 244° | 49 W/m² | - |
| 1778029326 | 22.78° C | 32% | 1012.1 hPa | 0 mm | 2.68 m/s, 223° | 53 W/m² | - |
| 1778029023 | 22.78° C | 32% | 1012.1 hPa | 0 mm | 0.45 m/s, 241° | 69 W/m² | - |
| 1778028719 | 22.78° C | 32% | 1011.6 hPa | 0 mm | 2.68 m/s, 192° | 106 W/m² | - |
| 1778028415 | 23.33° C | 31% | 1011.7 hPa | 0 mm | 0 m/s | 121 W/m² | - |
| 1778028113 | 23.33° C | 30% | 1011.9 hPa | 0 mm | 0.45 m/s, 209° | 64 W/m² | - |
| 1778027809 | 22.78° C | 31% | 1012 hPa | 0 mm | 0 m/s | 62 W/m² | - |
| 1778027505 | 23.33° C | 30% | 1011.7 hPa | 0 mm | 1.79 m/s, 237° | 63 W/m² | - |
| 1778027201 | 23.89° C | 29% | 1011.6 hPa | 0 mm | 0 m/s | 183 W/m² | - |
| 1778026898 | 23.89° C | 29% | 1011.7 hPa | 0 mm | 0 m/s | 89 W/m² | - |
| 1778026593 | 23.89° C | 29% | 1011.7 hPa | 0 mm | 0.89 m/s, 194° | 249 W/m² | - |
| 1778026291 | 25° C | 28% | 1011.6 hPa | 0 mm | 2.68 m/s, 202° | 295 W/m² | - |
| 1778025988 | 24.44° C | 28% | 1011.4 hPa | 0 mm | 0 m/s | 317 W/m² | - |
| 1778025685 | 24.44° C | 28% | 1011.5 hPa | 0 mm | 1.34 m/s, 289° | 321 W/m² | - |
| 1778025383 | 24.44° C | 28% | 1011.4 hPa | 0 mm | 0 m/s | 359 W/m² | - |
| 1778025080 | 23.89° C | 30% | 1011.3 hPa | 0 mm | 0.45 m/s, 255° | 380 W/m² | - |
| 1778024777 | 25° C | 28% | 1011.3 hPa | 0 mm | 0 m/s | 374 W/m² | - |
| 1778024474 | 24.44° C | 29% | 1011.5 hPa | 0 mm | 0 m/s | 376 W/m² | - |
| 1778024172 | 25° C | 28% | 1011.4 hPa | 0 mm | 2.24 m/s, 175° | 419 W/m² | - |
| 1778023869 | 24.44° C | 29% | 1011.2 hPa | 0 mm | 0 m/s | 156 W/m² | - |
| 1778023567 | 25° C | 29% | 1011.3 hPa | 0 mm | 0 m/s | 328 W/m² | - |
| 1778023264 | 23.89° C | 31% | 1011.2 hPa | 0 mm | 0 m/s | 127 W/m² | - |
| 1778022960 | 23.89° C | 30% | 1011.1 hPa | 0 mm | 0 m/s | 174 W/m² | - |
| 1778022659 | 22.78° C | 32% | 1011.3 hPa | 0 mm | 0 m/s | 137 W/m² | - |
* Rain latest hour (hover to see other rain measurements)
** Current wind speed in m/s (hover to see current wind gust speed)